| Date | Time | Temp. (oF) | Dew Point (oF) | Rel. Hum. (%) | Press. (in.) | Wind Dir. (deg.) | Wind Speed (mph) | Hourly Rainfall (i n.) |
|
|---|---|---|---|---|---|---|---|---|---|
| 1 | 05/15 | 24:00 | 51 | 36 | 58 | 30.39 | 140 | 0 | 0.00 |
| 2 | 05/14 | 23:00 | 54 | 35 | 50 | 30.42 | 140 | 0 | 0.00 |
| 3 | 05/14 | 22:00 | 56 | 36 | 48 | 30.41 | 140 | 1 | 0.00 |
| 4 | 05/14 | 21:00 | 58 | 38 | 49 | 30.40 | 130 | 1 | 0.00 |
| 5 | 05/14 | 20:00 | 61 | 38 | 44 | 30.39 | 150 | 1 | 0.00 |
| 6 | 05/14 | 19:00 | 63 | 38 | 40 | 30.37 | 170 | 1 | 0.00 |
| 7 | 05/14 | 18:00 | 66 | 40 | 40 | 30.33 | 190 | 2 | 0.00 |
| 8 | 05/14 | 17:00 | 67 | 41 | 39 | 30.31 | 130 | 6 | 0.00 |
| 9 | 05/14 | 16:00 | 70 | 44 | 40 | 30.30 | 140 | 1 | 0.00 |
| 10 | 05/14 | 15:00 | 70 | 44 | 40 | 30.30 | 150 | 4 | 0.00 |
| 11 | 05/14 | 14:00 | 70 | 43 | 39 | 30.29 | 50 | 2 | 0.00 |
| 12 | 05/14 | 13:00 | 70 | 45 | 41 | 30.30 | 310 | 9 | 0.00 |
| 13 | 05/14 | 12:00 | 69 | 46 | 44 | 30.30 | 10 | 4 | 0.00 |
| 14 | 05/14 | 11:00 | 64 | 46 | 53 | 30.30 | 310 | 4 | 0.00 |
| 15 | 05/14 | 10:00 | 56 | 41 | 58 | 30.34 | 130 | 4 | 0.00 |
| 16 | 05/14 | 09:00 | 52 | 41 | 68 | 30.34 | 50 | 2 | 0.00 |
| 17 | 05/14 | 08:00 | 49 | 41 | 75 | 30.31 | 270 | 1 | 0.00 |
| 18 | 05/14 | 07:00 | 48 | 40 | 76 | 30.28 | 220 | 4 | 0.00 |
| 19 | 05/14 | 06:00 | 48 | 39 | 73 | 30.26 | 230 | 1 | 0.00 |
| 20 | 05/14 | 05:00 | 50 | 39 | 68 | 30.22 | 230 | 2 | 0.00 |
| 21 | 05/14 | 04:00 | 51 | 39 | 65 | 30.20 | 90 | 0 | 0.00 |
| 22 | 05/14 | 03:00 | 52 | 40 | 65 | 30.20 | 50 | 1 | 0.00 |
| 23 | 05/14 | 02:00 | 53 | 44 | 72 | 30.18 | 10 | 2 | 0.00 |
| 24 | 05/14 | 01:00 | 53 | 46 | 78 | 30.16 | 10 | 0 | 0.00 |